createdAt,value
2023-03-13T00:01:14.933Z,77.23
2023-03-13T00:03:42.940Z,78.24
2023-03-13T00:06:11.128Z,77.39
2023-03-13T00:08:39.336Z,77.89
2023-03-13T00:11:08.724Z,78.29
2023-03-13T00:13:38.439Z,78.37
2023-03-13T00:16:08.906Z,78.67
2023-03-13T00:18:37.185Z,78.29
2023-03-13T00:21:07.469Z,77.69
2023-03-13T00:23:37.389Z,78.29
2023-03-13T00:26:07.658Z,79.54
2023-03-13T00:28:38.243Z,79.56
2023-03-13T00:31:08.266Z,80.00
2023-03-13T00:33:36.937Z,80.05
2023-03-13T00:36:07.748Z,80.15
2023-03-13T00:38:36.508Z,79.02
2023-03-13T00:41:06.492Z,79.22
2023-03-13T00:43:35.684Z,79.16
2023-03-13T00:46:05.521Z,79.95
2023-03-13T00:48:34.373Z,80.59
2023-03-13T00:51:02.958Z,80.81
2023-03-13T00:53:31.240Z,80.56
2023-03-13T00:56:01.405Z,81.06
2023-03-13T00:58:32.628Z,80.54
2023-03-13T01:01:10.254Z,80.41
2023-03-13T01:03:39.696Z,80.73
2023-03-13T01:06:10.563Z,82.81
2023-03-13T01:08:38.581Z,81.80
2023-03-13T01:11:08.663Z,81.56
2023-03-13T01:13:36.975Z,81.13
2023-03-13T01:16:06.116Z,80.81
2023-03-13T01:18:37.756Z,81.01
2023-03-13T01:21:06.890Z,81.19
2023-03-13T01:23:35.226Z,81.70
2023-03-13T01:26:06.196Z,81.92
2023-03-13T01:28:34.596Z,83.26
2023-03-13T01:31:11.303Z,81.17
2023-03-13T01:33:40.912Z,81.00
2023-03-13T01:36:09.971Z,80.77
2023-03-13T01:38:38.157Z,81.26
2023-03-13T01:41:06.669Z,81.28
2023-03-13T01:43:36.621Z,80.94
2023-03-13T01:46:13.721Z,81.43
2023-03-13T01:48:48.031Z,82.82
2023-03-13T01:51:21.041Z,84.31
2023-03-13T01:53:52.847Z,85.44
2023-03-13T01:56:24.092Z,85.64
2023-03-13T01:58:53.401Z,85.46
2023-03-13T02:01:22.065Z,87.59
2023-03-13T02:03:52.052Z,86.83
2023-03-13T02:06:20.480Z,87.22
2023-03-13T02:08:53.417Z,89.27
2023-03-13T02:11:28.843Z,91.66
2023-03-13T02:13:58.078Z,90.92
2023-03-13T02:16:26.471Z,90.18
2023-03-13T02:18:56.037Z,89.24
2023-03-13T02:21:38.186Z,90.03
2023-03-13T02:24:15.183Z,90.61
2023-03-13T02:26:44.713Z,92.42
2023-03-13T02:29:18.500Z,94.63
2023-03-13T02:31:48.601Z,95.17
2023-03-13T02:34:21.824Z,93.90
2023-03-13T02:36:51.322Z,92.80
2023-03-13T02:39:23.055Z,90.76
2023-03-13T02:41:54.408Z,89.23
2023-03-13T02:44:22.420Z,90.39
2023-03-13T02:46:53.249Z,89.00
2023-03-13T02:49:24.781Z,90.46
2023-03-13T02:51:54.399Z,92.45
2023-03-13T02:54:25.403Z,93.63
2023-03-13T02:56:58.719Z,91.47
2023-03-13T02:59:27.180Z,90.73
2023-03-13T03:01:55.347Z,90.63
2023-03-13T03:04:24.364Z,90.32
2023-03-13T03:06:53.088Z,91.61
2023-03-13T03:09:21.830Z,91.46
2023-03-13T03:11:50.426Z,90.41
2023-03-13T03:14:19.923Z,89.02
2023-03-13T03:16:48.051Z,89.25
2023-03-13T03:19:16.313Z,88.43
2023-03-13T03:21:45.241Z,88.77
2023-03-13T03:24:13.277Z,88.85
2023-03-13T03:26:41.177Z,87.61
2023-03-13T03:29:09.119Z,85.78
2023-03-13T03:31:38.452Z,83.89
2023-03-13T03:34:06.445Z,83.25
2023-03-13T03:36:34.682Z,91.35
2023-03-13T03:39:02.622Z,88.75
2023-03-13T03:41:30.539Z,86.27
2023-03-13T03:43:58.472Z,86.55
2023-03-13T03:46:26.380Z,86.36
2023-03-13T03:48:55.829Z,85.78
2023-03-13T03:51:24.119Z,90.27
2023-03-13T03:53:52.023Z,88.21
2023-03-13T03:56:19.943Z,86.41
2023-03-13T03:58:48.039Z,86.34
2023-03-13T04:01:15.930Z,88.63
2023-03-13T04:03:43.955Z,89.16
2023-03-13T04:06:13.269Z,88.22
2023-03-13T04:08:41.149Z,87.83
2023-03-13T04:11:09.039Z,93.20
2023-03-13T04:13:36.939Z,96.55
2023-03-13T04:16:08.490Z,94.05
2023-03-13T04:18:36.686Z,92.95
2023-03-13T04:21:06.615Z,95.54
2023-03-13T04:23:35.905Z,99.03
2023-03-13T04:26:03.800Z,100.00
2023-03-13T04:28:31.710Z,100.00
2023-03-13T04:31:01.373Z,100.00
2023-03-13T04:33:30.383Z,100.00
2023-03-13T04:35:58.357Z,100.00
2023-03-13T04:38:26.723Z,100.00
2023-03-13T04:40:56.014Z,100.00
2023-03-13T04:43:23.966Z,100.00
2023-03-13T04:45:54.672Z,100.00
2023-03-13T04:48:23.024Z,100.00
2023-03-13T04:50:50.951Z,100.00
2023-03-13T04:53:19.392Z,100.00
2023-03-13T04:55:47.598Z,100.00
2023-03-13T04:58:16.928Z,100.00
2023-03-13T05:00:44.872Z,100.00
2023-03-13T05:03:12.790Z,100.00
2023-03-13T05:05:40.706Z,100.00
2023-03-13T05:08:08.852Z,100.00
2023-03-13T05:10:36.817Z,100.00
2023-03-13T05:13:04.693Z,100.00
2023-03-13T05:15:34.069Z,100.00
2023-03-13T05:18:02.017Z,100.00
2023-03-13T05:20:30.005Z,100.00
2023-03-13T05:22:57.908Z,100.00
2023-03-13T05:25:25.867Z,100.00
2023-03-13T05:27:53.803Z,100.00
2023-03-13T05:30:21.781Z,100.00
2023-03-13T05:32:51.147Z,100.00
2023-03-13T05:35:19.097Z,100.00
2023-03-13T05:37:47.546Z,100.00
2023-03-13T05:40:15.837Z,100.00
2023-03-13T05:42:44.000Z,100.00
2023-03-13T05:45:13.099Z,100.00
2023-03-13T05:47:41.754Z,100.00
2023-03-13T05:50:12.281Z,100.00
2023-03-13T05:52:40.226Z,98.80
2023-03-13T05:55:08.587Z,98.48
2023-03-13T05:57:36.508Z,96.21
2023-03-13T06:00:04.963Z,95.26
2023-03-13T06:02:33.008Z,89.98
2023-03-13T06:05:00.988Z,88.84
2023-03-13T06:07:30.303Z,86.93
2023-03-13T06:09:58.245Z,85.51
2023-03-13T06:12:26.280Z,81.10
2023-03-13T06:14:54.171Z,80.33
2023-03-13T06:17:22.165Z,79.66
2023-03-13T06:19:50.108Z,77.30
2023-03-13T06:22:18.580Z,75.82
2023-03-13T06:24:49.682Z,77.27
2023-03-13T06:27:17.774Z,77.16
2023-03-13T06:29:45.706Z,76.53
2023-03-13T06:32:13.698Z,75.14
2023-03-13T06:34:41.752Z,74.40
2023-03-13T06:37:09.644Z,72.65
2023-03-13T06:39:37.629Z,74.80
2023-03-13T06:42:08.042Z,72.91
2023-03-13T06:44:35.936Z,73.69
2023-03-13T06:47:03.919Z,69.71
2023-03-13T06:49:31.982Z,69.62
2023-03-13T06:52:00.124Z,69.96
2023-03-13T06:54:28.052Z,72.23
2023-03-13T06:56:56.009Z,69.68
2023-03-13T06:59:25.309Z,67.93
2023-03-13T07:01:53.227Z,69.76
2023-03-13T07:04:21.274Z,66.22
2023-03-13T07:06:49.238Z,65.55
2023-03-13T07:09:20.029Z,66.62
2023-03-13T07:11:48.037Z,65.60
2023-03-13T07:14:17.666Z,64.29
2023-03-13T07:16:47.707Z,63.98
2023-03-13T07:19:16.323Z,63.32
2023-03-13T07:21:44.561Z,61.47
2023-03-13T07:24:12.652Z,59.69
2023-03-13T07:26:46.500Z,60.26
2023-03-13T07:29:22.333Z,58.18
2023-03-13T07:31:51.880Z,59.56
2023-03-13T07:34:20.184Z,57.79
2023-03-13T07:36:48.143Z,55.87
2023-03-13T07:39:16.048Z,57.12
2023-03-13T07:41:44.008Z,58.92
2023-03-13T07:44:12.022Z,58.53
2023-03-13T07:46:39.934Z,55.06
2023-03-13T07:49:09.244Z,55.84
2023-03-13T07:51:43.354Z,55.08
2023-03-13T07:54:12.147Z,55.54
2023-03-13T07:56:40.467Z,54.34
2023-03-13T07:59:09.241Z,55.55
2023-03-13T08:01:37.602Z,56.67
2023-03-13T08:04:05.984Z,55.33
2023-03-13T08:06:36.887Z,53.75
2023-03-13T08:09:05.656Z,56.65
2023-03-13T08:11:33.642Z,59.00
2023-03-13T08:14:01.587Z,56.64
2023-03-13T08:16:31.737Z,58.69
2023-03-13T08:19:00.310Z,60.56
2023-03-13T08:21:30.225Z,59.56
2023-03-13T08:24:01.386Z,58.99
2023-03-13T08:26:31.461Z,57.39
2023-03-13T08:29:01.234Z,57.94
2023-03-13T08:31:30.959Z,57.02
2023-03-13T08:33:59.523Z,54.79
2023-03-13T08:36:29.308Z,53.95
2023-03-13T08:39:01.807Z,54.64
2023-03-13T08:41:33.936Z,56.41
2023-03-13T08:44:01.954Z,55.02
2023-03-13T08:46:31.384Z,53.54
2023-03-13T08:48:59.719Z,53.29
2023-03-13T08:51:29.106Z,51.61
2023-03-13T08:53:57.807Z,52.88
2023-03-13T08:56:30.426Z,52.48
2023-03-13T08:59:00.157Z,51.73
2023-03-13T09:01:30.321Z,52.91
2023-03-13T09:04:00.581Z,52.00
2023-03-13T09:06:30.859Z,50.18
2023-03-13T09:08:59.277Z,50.36
2023-03-13T09:11:29.126Z,51.63
2023-03-13T09:13:59.327Z,52.80
2023-03-13T09:16:29.550Z,49.04
2023-03-13T09:18:59.132Z,47.40
2023-03-13T09:21:29.436Z,48.81
2023-03-13T09:23:57.962Z,47.71
2023-03-13T09:26:26.622Z,47.76
2023-03-13T09:28:56.374Z,46.99
2023-03-13T09:31:26.699Z,47.40
2023-03-13T09:33:55.615Z,47.44
2023-03-13T09:36:24.908Z,44.87
2023-03-13T09:38:53.418Z,47.02
2023-03-13T09:41:27.955Z,48.15
2023-03-13T09:44:04.440Z,46.74
2023-03-13T09:46:39.111Z,46.71
2023-03-13T09:49:17.860Z,47.78
2023-03-13T09:51:51.905Z,47.09
2023-03-13T09:54:26.059Z,48.51
2023-03-13T09:56:56.057Z,46.69
2023-03-13T09:59:31.513Z,48.61
2023-03-13T10:02:03.317Z,46.49
2023-03-13T10:04:37.006Z,43.27
2023-03-13T10:07:05.754Z,42.89
2023-03-13T10:09:36.825Z,43.43
2023-03-13T10:12:16.840Z,43.52
2023-03-13T10:14:54.472Z,45.67
2023-03-13T10:17:35.287Z,42.19
2023-03-13T10:20:18.345Z,42.34
2023-03-13T10:22:49.603Z,43.67
2023-03-13T10:25:28.851Z,43.79
2023-03-13T10:27:56.945Z,42.71
2023-03-13T10:30:28.467Z,41.39
2023-03-13T10:33:00.074Z,41.06
2023-03-13T10:35:34.787Z,43.00
2023-03-13T10:38:07.211Z,43.32
2023-03-13T10:40:35.349Z,41.70
2023-03-13T10:43:06.197Z,42.57
2023-03-13T10:45:37.780Z,44.31
2023-03-13T10:48:13.830Z,43.15
2023-03-13T10:50:44.051Z,41.05
2023-03-13T10:53:33.083Z,40.84
2023-03-13T10:56:10.528Z,42.09
2023-03-13T10:58:44.069Z,43.26
2023-03-13T11:01:21.895Z,41.10
2023-03-13T11:03:51.348Z,39.55
2023-03-13T11:06:31.304Z,40.48
2023-03-13T11:09:03.096Z,40.99
2023-03-13T11:11:31.879Z,42.79
2023-03-13T11:14:10.801Z,40.46
2023-03-13T11:16:47.721Z,37.57
2023-03-13T11:19:31.169Z,40.65
2023-03-13T11:22:14.395Z,35.96
2023-03-13T11:24:47.574Z,35.57
2023-03-13T11:27:27.868Z,35.61
2023-03-13T11:30:06.176Z,35.12
2023-03-13T11:32:42.340Z,35.14
2023-03-13T11:35:22.254Z,33.53
2023-03-13T11:37:57.130Z,35.16
2023-03-13T11:40:32.981Z,35.35
2023-03-13T11:43:25.378Z,33.78
2023-03-13T11:46:10.140Z,34.85
2023-03-13T11:49:17.575Z,36.33
2023-03-13T11:51:58.011Z,36.24
2023-03-13T11:54:42.114Z,33.64
2023-03-13T11:57:15.546Z,34.99
2023-03-13T11:59:52.398Z,36.16
2023-03-13T12:02:27.354Z,34.49
2023-03-13T12:05:01.132Z,35.68
2023-03-13T12:07:34.021Z,36.05
2023-03-13T12:10:04.959Z,33.08
2023-03-13T12:12:41.890Z,35.87
2023-03-13T12:15:22.614Z,36.10
2023-03-13T12:17:55.027Z,34.50
2023-03-13T12:20:28.351Z,34.16
2023-03-13T12:23:15.384Z,35.51
2023-03-13T12:25:47.157Z,34.72
2023-03-13T12:28:25.062Z,35.30
2023-03-13T12:30:59.379Z,35.39
2023-03-13T12:33:32.161Z,34.12
2023-03-13T12:36:06.972Z,35.18
2023-03-13T12:38:41.128Z,34.55
2023-03-13T12:41:20.105Z,36.27
2023-03-13T12:44:07.240Z,35.39
2023-03-13T12:46:44.205Z,34.86
2023-03-13T12:49:56.739Z,35.88
2023-03-13T12:52:57.157Z,36.02
2023-03-13T12:55:46.936Z,36.39
2023-03-13T12:58:34.738Z,35.99
2023-03-13T13:01:06.668Z,35.06
2023-03-13T13:03:37.451Z,35.12
2023-03-13T13:06:08.883Z,36.15
2023-03-13T13:08:40.301Z,35.96
2023-03-13T13:11:50.657Z,36.20
2023-03-13T13:14:51.671Z,35.83
2023-03-13T13:17:36.253Z,37.31
2023-03-13T13:20:38.992Z,36.15
2023-03-13T13:23:27.666Z,35.25
2023-03-13T13:25:57.791Z,36.59
2023-03-13T13:28:34.579Z,36.23
2023-03-13T13:31:03.307Z,34.19
2023-03-13T13:33:41.243Z,36.38
2023-03-13T13:36:42.581Z,34.69
2023-03-13T13:39:33.854Z,33.72
2023-03-13T13:42:03.883Z,33.79
2023-03-13T13:44:31.960Z,34.77
2023-03-13T13:47:02.100Z,34.18
2023-03-13T13:49:56.011Z,35.90
2023-03-13T13:52:39.381Z,34.95
2023-03-13T13:55:34.069Z,34.47
2023-03-13T13:58:05.321Z,34.25
2023-03-13T14:00:41.906Z,35.48
2023-03-13T14:03:20.473Z,36.16
2023-03-13T14:05:53.190Z,35.67
2023-03-13T14:08:24.312Z,34.21
2023-03-13T14:11:04.759Z,34.48
2023-03-13T14:13:32.831Z,34.43
2023-03-13T14:16:24.327Z,34.16
2023-03-13T14:18:53.289Z,36.86
2023-03-13T14:21:25.759Z,36.62
2023-03-13T14:23:54.225Z,36.70
2023-03-13T14:26:24.107Z,35.27
2023-03-13T14:28:53.898Z,33.96
2023-03-13T14:31:28.616Z,34.44
2023-03-13T14:33:57.970Z,33.81
2023-03-13T14:36:28.088Z,33.64
2023-03-13T14:38:58.323Z,33.68
2023-03-13T14:41:31.392Z,34.07
2023-03-13T14:44:07.742Z,34.33
2023-03-13T14:46:38.341Z,35.80
2023-03-13T14:49:16.225Z,35.88
2023-03-13T14:51:45.664Z,35.28
2023-03-13T14:54:35.421Z,34.39
2023-03-13T14:57:05.404Z,33.93
2023-03-13T14:59:33.459Z,35.76
2023-03-13T15:02:03.556Z,35.71
2023-03-13T15:04:56.124Z,35.10
2023-03-13T15:07:27.146Z,35.40
2023-03-13T15:09:55.425Z,34.93
2023-03-13T15:12:25.037Z,34.80
2023-03-13T15:14:53.897Z,36.22
2023-03-13T15:17:23.574Z,35.80
2023-03-13T15:19:53.499Z,37.19
2023-03-13T15:22:28.360Z,36.41
2023-03-13T15:25:06.076Z,35.47
2023-03-13T15:27:35.876Z,36.61
2023-03-13T15:30:03.951Z,36.50
2023-03-13T15:32:34.972Z,38.83
2023-03-13T15:35:03.445Z,38.71
2023-03-13T15:37:33.246Z,39.32
2023-03-13T15:40:02.508Z,40.37
2023-03-13T15:42:30.464Z,41.40
2023-03-13T15:44:58.364Z,42.14
2023-03-13T15:47:27.651Z,42.57
2023-03-13T15:49:55.659Z,43.27
2023-03-13T15:52:23.689Z,43.70
2023-03-13T15:54:53.610Z,44.62
2023-03-13T15:57:24.233Z,45.24
2023-03-13T15:59:52.938Z,44.51
2023-03-13T16:02:23.668Z,44.95
2023-03-13T16:04:53.664Z,45.11
2023-03-13T16:07:22.618Z,45.07
2023-03-13T16:09:51.987Z,45.33
2023-03-13T16:12:19.898Z,46.04
2023-03-13T16:14:47.834Z,46.08
2023-03-13T16:17:17.793Z,46.27
2023-03-13T16:19:46.489Z,47.24
2023-03-13T16:22:14.919Z,46.58
2023-03-13T16:24:43.226Z,46.74
2023-03-13T16:27:21.148Z,47.05
2023-03-13T16:29:49.052Z,46.76
2023-03-13T16:32:18.790Z,47.32
2023-03-13T16:34:46.736Z,48.08
2023-03-13T16:37:16.812Z,49.21
2023-03-13T16:39:46.042Z,48.41
2023-03-13T16:42:14.074Z,49.19
2023-03-13T16:44:43.424Z,48.92
2023-03-13T16:47:21.151Z,49.80
2023-03-13T16:49:49.202Z,49.78
2023-03-13T16:52:18.306Z,50.13
2023-03-13T16:54:46.729Z,50.12
2023-03-13T16:57:17.020Z,50.16
2023-03-13T16:59:46.776Z,50.48
2023-03-13T17:02:17.070Z,51.21
2023-03-13T17:04:45.555Z,51.40
2023-03-13T17:07:20.083Z,51.55
2023-03-13T17:09:48.394Z,51.51
2023-03-13T17:12:16.408Z,51.48
2023-03-13T17:14:44.417Z,51.50
2023-03-13T17:17:17.721Z,52.36
2023-03-13T17:19:45.719Z,52.54
2023-03-13T17:22:14.999Z,52.77
2023-03-13T17:24:43.889Z,53.60
2023-03-13T17:27:14.557Z,54.24
2023-03-13T17:29:43.112Z,54.84
2023-03-13T17:32:11.870Z,56.32
2023-03-13T17:34:41.628Z,56.06
2023-03-13T17:37:15.658Z,56.88
2023-03-13T17:39:44.583Z,58.22
2023-03-13T17:42:12.722Z,58.96
2023-03-13T17:44:41.278Z,59.64
2023-03-13T17:47:14.792Z,59.87
2023-03-13T17:49:44.805Z,59.64
2023-03-13T17:52:17.300Z,59.05
2023-03-13T17:54:45.963Z,58.40
2023-03-13T17:57:16.908Z,58.11
2023-03-13T17:59:45.307Z,57.95
2023-03-13T18:02:15.048Z,57.38
2023-03-13T18:04:45.095Z,57.69
2023-03-13T18:07:18.754Z,57.70
2023-03-13T18:09:47.913Z,57.70
2023-03-13T18:12:16.842Z,58.55
2023-03-13T18:14:45.250Z,59.31
2023-03-13T18:17:18.461Z,59.54
2023-03-13T18:19:48.824Z,59.77
2023-03-13T18:22:18.924Z,60.80
2023-03-13T18:24:46.963Z,61.58
2023-03-13T18:27:16.965Z,61.83
2023-03-13T18:29:45.834Z,61.77
2023-03-13T18:32:15.448Z,61.06
2023-03-13T18:34:44.393Z,61.05
2023-03-13T18:37:21.877Z,60.68
2023-03-13T18:39:51.323Z,60.18
2023-03-13T18:42:19.930Z,59.93
2023-03-13T18:44:47.985Z,59.89
2023-03-13T18:47:18.216Z,60.80
2023-03-13T18:49:47.091Z,60.02
2023-03-13T18:52:16.433Z,59.75
2023-03-13T18:54:45.168Z,59.62
2023-03-13T18:57:14.559Z,59.62
2023-03-13T18:59:42.464Z,60.20
2023-03-13T19:02:14.164Z,60.60
2023-03-13T19:04:42.170Z,60.33
2023-03-13T19:07:17.131Z,61.00
2023-03-13T19:09:46.941Z,60.79
2023-03-13T19:12:16.594Z,62.49
2023-03-13T19:14:44.792Z,63.39
2023-03-13T19:17:19.303Z,63.76
2023-03-13T19:19:47.209Z,62.80
2023-03-13T19:22:16.500Z,63.04
2023-03-13T19:24:44.407Z,61.86
2023-03-13T19:27:16.884Z,59.06
2023-03-13T19:29:45.420Z,58.44
2023-03-13T19:32:15.122Z,58.99
2023-03-13T19:34:43.337Z,59.05
2023-03-13T19:37:11.960Z,58.22
2023-03-13T19:39:41.842Z,59.60
2023-03-13T19:42:10.222Z,58.95
2023-03-13T19:44:40.340Z,60.67
2023-03-13T19:47:08.328Z,60.67
2023-03-13T19:49:36.268Z,60.81
2023-03-13T19:52:04.346Z,61.44
2023-03-13T19:54:32.238Z,62.65
2023-03-13T19:57:01.600Z,63.26
2023-03-13T19:59:31.912Z,63.96
2023-03-13T20:02:01.328Z,64.51
2023-03-13T20:04:29.267Z,64.64
2023-03-13T20:06:57.171Z,63.47
2023-03-13T20:09:25.105Z,63.21
2023-03-13T20:11:53.048Z,64.45
2023-03-13T20:14:22.361Z,64.86
2023-03-13T20:16:50.269Z,64.35
2023-03-13T20:19:18.206Z,64.30
2023-03-13T20:21:46.722Z,64.19
2023-03-13T20:24:14.632Z,64.89
2023-03-13T20:26:42.841Z,64.13
2023-03-13T20:29:10.857Z,64.86
2023-03-13T20:31:40.178Z,65.20
2023-03-13T20:34:08.323Z,65.96
2023-03-13T20:36:36.305Z,65.89
2023-03-13T20:39:05.551Z,66.55
2023-03-13T20:41:33.705Z,66.09
2023-03-13T20:44:01.620Z,66.07
2023-03-13T20:46:29.582Z,66.52
2023-03-13T20:48:59.143Z,66.95
2023-03-13T20:51:27.841Z,67.32
2023-03-13T20:53:55.780Z,66.77
2023-03-13T20:56:23.679Z,66.62
2023-03-13T20:58:51.585Z,65.98
2023-03-13T21:01:19.864Z,67.59
2023-03-13T21:03:48.072Z,66.85
2023-03-13T21:06:19.356Z,67.52
2023-03-13T21:08:47.738Z,67.45
2023-03-13T21:11:16.932Z,67.55
2023-03-13T21:13:45.207Z,66.90
2023-03-13T21:16:14.423Z,67.58
2023-03-13T21:18:42.486Z,67.50
2023-03-13T21:21:12.621Z,67.40
2023-03-13T21:23:42.117Z,67.51
2023-03-13T21:26:10.273Z,67.13
2023-03-13T21:28:39.569Z,67.41
2023-03-13T21:31:11.617Z,67.05
2023-03-13T21:33:40.360Z,67.14
2023-03-13T21:36:09.355Z,67.93
2023-03-13T21:38:37.421Z,67.50
2023-03-13T21:41:10.528Z,68.23
2023-03-13T21:43:38.574Z,67.40
2023-03-13T21:46:07.009Z,67.40
2023-03-13T21:48:35.049Z,68.78
2023-03-13T21:51:02.977Z,68.19
2023-03-13T21:53:30.918Z,68.34
2023-03-13T21:55:58.828Z,68.53
2023-03-13T21:58:28.482Z,69.70
2023-03-13T22:00:57.159Z,69.14
2023-03-13T22:03:26.567Z,68.78
2023-03-13T22:05:54.566Z,68.36
2023-03-13T22:08:22.506Z,68.65
2023-03-13T22:10:51.741Z,68.43
2023-03-13T22:13:19.876Z,68.47
2023-03-13T22:15:50.553Z,69.79
2023-03-13T22:18:19.392Z,69.21
2023-03-13T22:20:47.322Z,68.84
2023-03-13T22:23:15.255Z,69.82
2023-03-13T22:25:44.364Z,69.95
2023-03-13T22:28:13.218Z,69.56
2023-03-13T22:30:41.331Z,69.25
2023-03-13T22:33:10.625Z,70.19
2023-03-13T22:35:39.039Z,69.59
2023-03-13T22:38:07.289Z,69.82
2023-03-13T22:40:35.358Z,69.17
2023-03-13T22:43:03.364Z,70.18
2023-03-13T22:45:32.211Z,70.62
2023-03-13T22:48:06.065Z,70.29
2023-03-13T22:50:35.494Z,70.94
2023-03-13T22:53:03.904Z,70.82
2023-03-13T22:55:33.493Z,71.65
2023-03-13T22:58:01.481Z,70.76
2023-03-13T23:00:29.640Z,70.47
2023-03-13T23:02:57.610Z,71.21
2023-03-13T23:05:25.579Z,71.61
2023-03-13T23:07:54.894Z,71.83
2023-03-13T23:10:22.846Z,72.13
2023-03-13T23:12:50.763Z,71.70
2023-03-13T23:15:18.907Z,72.21
2023-03-13T23:17:46.790Z,72.41
2023-03-13T23:20:15.059Z,72.50
2023-03-13T23:22:43.931Z,72.08
2023-03-13T23:25:14.844Z,72.10
2023-03-13T23:27:43.534Z,73.03
2023-03-13T23:30:14.117Z,72.16
2023-03-13T23:32:44.448Z,73.12
2023-03-13T23:35:13.847Z,73.44
2023-03-13T23:37:41.757Z,73.05
2023-03-13T23:40:11.940Z,72.74
2023-03-13T23:42:41.308Z,73.35
2023-03-13T23:45:09.713Z,73.13
2023-03-13T23:47:37.618Z,72.78
2023-03-13T23:50:06.737Z,72.33
2023-03-13T23:52:35.341Z,72.32
2023-03-13T23:55:04.495Z,71.87
2023-03-13T23:57:32.745Z,72.33
